sensor_id;sensor_type;location;lat;lon;timestamp;pressure;altitude;pressure_sealevel;temperature;humidity
11343;BME280;5726;42.160;24.746;2023-07-31T00:00:05;98882.94;;;27.99;47.71
11343;BME280;5726;42.160;24.746;2023-07-31T00:02:30;98884.84;;;27.49;48.70
11343;BME280;5726;42.160;24.746;2023-07-31T00:04:56;98888.44;;;27.73;48.28
11343;BME280;5726;42.160;24.746;2023-07-31T00:07:22;98888.59;;;27.62;48.76
11343;BME280;5726;42.160;24.746;2023-07-31T00:09:47;98883.84;;;27.66;48.99
11343;BME280;5726;42.160;24.746;2023-07-31T00:12:12;98891.88;;;27.80;48.32
11343;BME280;5726;42.160;24.746;2023-07-31T00:14:38;98887.78;;;27.92;48.04
11343;BME280;5726;42.160;24.746;2023-07-31T00:17:03;98883.56;;;27.57;48.37
11343;BME280;5726;42.160;24.746;2023-07-31T00:19:29;98878.22;;;27.44;49.33
11343;BME280;5726;42.160;24.746;2023-07-31T00:21:54;98893.94;;;27.46;49.07
11343;BME280;5726;42.160;24.746;2023-07-31T00:24:20;98902.78;;;27.31;49.33
11343;BME280;5726;42.160;24.746;2023-07-31T00:26:45;98906.69;;;27.34;49.44
11343;BME280;5726;42.160;24.746;2023-07-31T00:29:11;98906.69;;;27.34;49.99
11343;BME280;5726;42.160;24.746;2023-07-31T00:31:36;98900.56;;;27.52;48.98
11343;BME280;5726;42.160;24.746;2023-07-31T00:34:01;98902.56;;;27.48;49.28
11343;BME280;5726;42.160;24.746;2023-07-31T00:36:27;98906.50;;;27.51;48.92
11343;BME280;5726;42.160;24.746;2023-07-31T00:38:52;98899.34;;;27.53;49.20
11343;BME280;5726;42.160;24.746;2023-07-31T00:41:17;98900.97;;;27.51;49.27
11343;BME280;5726;42.160;24.746;2023-07-31T00:43:43;98894.38;;;27.42;49.59
11343;BME280;5726;42.160;24.746;2023-07-31T00:46:08;98899.44;;;27.46;49.37
11343;BME280;5726;42.160;24.746;2023-07-31T00:48:35;98896.69;;;27.46;49.42
11343;BME280;5726;42.160;24.746;2023-07-31T00:51:01;98901.66;;;27.58;49.38
11343;BME280;5726;42.160;24.746;2023-07-31T00:53:27;98899.34;;;27.53;49.19
11343;BME280;5726;42.160;24.746;2023-07-31T00:55:53;98911.84;;;27.61;49.12
11343;BME280;5726;42.160;24.746;2023-07-31T00:58:19;98908.72;;;27.59;48.97
11343;BME280;5726;42.160;24.746;2023-07-31T01:00:44;98900.06;;;27.28;49.90
11343;BME280;5726;42.160;24.746;2023-07-31T01:03:11;98893.19;;;27.13;50.18
11343;BME280;5726;42.160;24.746;2023-07-31T01:11:05;98920.69;;;26.76;51.52
11343;BME280;5726;42.160;24.746;2023-07-31T01:13:32;98916.72;;;26.81;51.55
11343;BME280;5726;42.160;24.746;2023-07-31T01:15:58;98912.66;;;26.96;51.55
11343;BME280;5726;42.160;24.746;2023-07-31T01:18:23;98909.88;;;26.99;51.37
11343;BME280;5726;42.160;24.746;2023-07-31T01:20:54;98917.84;;;27.23;50.82
11343;BME280;5726;42.160;24.746;2023-07-31T01:23:35;98919.59;;;27.07;50.86
11343;BME280;5726;42.160;24.746;2023-07-31T01:26:12;98917.34;;;26.98;51.03
11343;BME280;5726;42.160;24.746;2023-07-31T01:28:48;98910.28;;;26.98;50.97
11343;BME280;5726;42.160;24.746;2023-07-31T01:31:21;98914.16;;;27.03;50.99
11343;BME280;5726;42.160;24.746;2023-07-31T01:33:49;98919.44;;;27.21;50.98
11343;BME280;5726;42.160;24.746;2023-07-31T01:36:16;98916.28;;;27.52;50.55
11343;BME280;5726;42.160;24.746;2023-07-31T01:38:42;98917.31;;;27.65;49.43
11343;BME280;5726;42.160;24.746;2023-07-31T01:41:07;98922.41;;;27.66;49.32
11343;BME280;5726;42.160;24.746;2023-07-31T01:43:32;98917.50;;;27.47;50.19
11343;BME280;5726;42.160;24.746;2023-07-31T01:45:58;98926.72;;;27.38;50.42
11343;BME280;5726;42.160;24.746;2023-07-31T01:48:23;98923.22;;;27.34;50.50
11343;BME280;5726;42.160;24.746;2023-07-31T01:50:49;98918.06;;;27.36;50.69
11343;BME280;5726;42.160;24.746;2023-07-31T01:53:15;98911.72;;;27.09;50.95
11343;BME280;5726;42.160;24.746;2023-07-31T01:55:40;98912.63;;;26.99;51.75
11343;BME280;5726;42.160;24.746;2023-07-31T01:58:05;98909.88;;;26.99;51.81
11343;BME280;5726;42.160;24.746;2023-07-31T02:00:31;98903.56;;;26.98;51.58
11343;BME280;5726;42.160;24.746;2023-07-31T02:02:56;98911.44;;;27.30;50.77
11343;BME280;5726;42.160;24.746;2023-07-31T02:05:22;98905.31;;;27.48;50.59
11343;BME280;5726;42.160;24.746;2023-07-31T02:07:47;98910.50;;;27.43;49.59
11343;BME280;5726;42.160;24.746;2023-07-31T02:10:13;98905.31;;;27.19;50.39
11343;BME280;5726;42.160;24.746;2023-07-31T02:12:38;98913.75;;;27.01;51.29
11343;BME280;5726;42.160;24.746;2023-07-31T02:15:04;98924.06;;;26.54;52.49
11343;BME280;5726;42.160;24.746;2023-07-31T02:17:29;98914.53;;;26.65;52.08
11343;BME280;5726;42.160;24.746;2023-07-31T02:19:55;98913.78;;;26.61;52.36
11343;BME280;5726;42.160;24.746;2023-07-31T02:22:20;98916.41;;;26.32;53.12
11343;BME280;5726;42.160;24.746;2023-07-31T02:24:46;98909.44;;;26.17;53.59
11343;BME280;5726;42.160;24.746;2023-07-31T02:27:11;98909.56;;;26.03;54.05
11343;BME280;5726;42.160;24.746;2023-07-31T02:29:36;98908.84;;;25.92;55.06
11343;BME280;5726;42.160;24.746;2023-07-31T02:32:02;98909.75;;;25.75;55.90
11343;BME280;5726;42.160;24.746;2023-07-31T02:34:28;98907.72;;;25.86;56.04
11343;BME280;5726;42.160;24.746;2023-07-31T02:36:53;98894.78;;;25.83;57.06
11343;BME280;5726;42.160;24.746;2023-07-31T02:39:19;98897.22;;;25.74;58.27
11343;BME280;5726;42.160;24.746;2023-07-31T02:41:44;98901.16;;;25.66;59.51
11343;BME280;5726;42.160;24.746;2023-07-31T02:44:10;98901.53;;;25.72;60.41
11343;BME280;5726;42.160;24.746;2023-07-31T02:46:38;98904.19;;;25.89;60.53
11343;BME280;5726;42.160;24.746;2023-07-31T02:49:03;98893.94;;;25.90;61.73
11343;BME280;5726;42.160;24.746;2023-07-31T02:51:28;98895.59;;;25.77;63.22
11343;BME280;5726;42.160;24.746;2023-07-31T02:53:54;98882.88;;;26.00;63.32
11343;BME280;5726;42.160;24.746;2023-07-31T02:56:19;98890.63;;;26.12;64.08
11343;BME280;5726;42.160;24.746;2023-07-31T02:58:45;98885.28;;;25.95;65.02
11343;BME280;5726;42.160;24.746;2023-07-31T03:01:10;98885.91;;;26.12;65.73
11343;BME280;5726;42.160;24.746;2023-07-31T03:03:35;98886.88;;;25.92;67.20
11343;BME280;5726;42.160;24.746;2023-07-31T03:06:01;98890.84;;;25.88;68.33
11343;BME280;5726;42.160;24.746;2023-07-31T03:08:26;98880.59;;;25.92;68.78
11343;BME280;5726;42.160;24.746;2023-07-31T03:10:52;98875.50;;;25.94;69.90
11343;BME280;5726;42.160;24.746;2023-07-31T03:13:17;98879.00;;;25.94;70.69
11343;BME280;5726;42.160;24.746;2023-07-31T03:15:43;98884.69;;;25.63;74.55
11343;BME280;5726;42.160;24.746;2023-07-31T03:18:08;98882.94;;;25.93;77.35
11343;BME280;5726;42.160;24.746;2023-07-31T03:20:34;98896.41;;;25.77;81.59
11343;BME280;5726;42.160;24.746;2023-07-31T03:22:59;98890.53;;;25.72;85.50
11343;BME280;5726;42.160;24.746;2023-07-31T03:25:25;98896.22;;;25.37;91.22
11343;BME280;5726;42.160;24.746;2023-07-31T03:27:50;98897.09;;;25.17;95.69
11343;BME280;5726;42.160;24.746;2023-07-31T03:30:15;98902.22;;;24.98;99.10
11343;BME280;5726;42.160;24.746;2023-07-31T03:32:41;98906.16;;;25.03;96.88
11343;BME280;5726;42.160;24.746;2023-07-31T03:35:06;98917.94;;;25.04;99.94
11343;BME280;5726;42.160;24.746;2023-07-31T03:37:32;98921.78;;;25.17;99.58
11343;BME280;5726;42.160;24.746;2023-07-31T03:39:58;98923.03;;;24.95;100.00
11343;BME280;5726;42.160;24.746;2023-07-31T03:42:23;98924.22;;;24.84;100.00
11343;BME280;5726;42.160;24.746;2023-07-31T03:44:48;98922.66;;;24.90;100.00
11343;BME280;5726;42.160;24.746;2023-07-31T03:47:14;98933.63;;;24.86;100.00
11343;BME280;5726;42.160;24.746;2023-07-31T03:49:39;98943.00;;;25.06;100.00
11343;BME280;5726;42.160;24.746;2023-07-31T03:52:05;98961.03;;;25.07;100.00
11343;BME280;5726;42.160;24.746;2023-07-31T03:54:30;98951.25;;;25.06;100.00
11343;BME280;5726;42.160;24.746;2023-07-31T03:56:56;98963.44;;;24.70;100.00
11343;BME280;5726;42.160;24.746;2023-07-31T03:59:22;98958.78;;;24.33;100.00
11343;BME280;5726;42.160;24.746;2023-07-31T04:01:47;98956.38;;;24.24;100.00
11343;BME280;5726;42.160;24.746;2023-07-31T04:04:12;98954.47;;;24.42;100.00
11343;BME280;5726;42.160;24.746;2023-07-31T04:06:38;98966.19;;;24.25;100.00
11343;BME280;5726;42.160;24.746;2023-07-31T04:09:04;98970.44;;;24.02;100.00
11343;BME280;5726;42.160;24.746;2023-07-31T04:11:29;98964.97;;;24.02;100.00
11343;BME280;5726;42.160;24.746;2023-07-31T04:13:54;98961.88;;;24.21;100.00
11343;BME280;5726;42.160;24.746;2023-07-31T04:16:20;98960.31;;;24.41;100.00
11343;BME280;5726;42.160;24.746;2023-07-31T04:18:45;98968.56;;;24.48;100.00
11343;BME280;5726;42.160;24.746;2023-07-31T04:21:11;98975.59;;;24.35;100.00
11343;BME280;5726;42.160;24.746;2023-07-31T04:23:37;98974.38;;;24.29;100.00
11343;BME280;5726;42.160;24.746;2023-07-31T04:26:02;98974.38;;;24.22;100.00
11343;BME280;5726;42.160;24.746;2023-07-31T04:28:27;98979.03;;;23.87;100.00
11343;BME280;5726;42.160;24.746;2023-07-31T04:30:53;98983.75;;;24.00;100.00
11343;BME280;5726;42.160;24.746;2023-07-31T04:33:18;98982.97;;;24.03;100.00
11343;BME280;5726;42.160;24.746;2023-07-31T04:35:52;98984.53;;;24.04;100.00
11343;BME280;5726;42.160;24.746;2023-07-31T04:38:19;98988.03;;;23.91;100.00
11343;BME280;5726;42.160;24.746;2023-07-31T04:40:44;98997.03;;;23.98;100.00
11343;BME280;5726;42.160;24.746;2023-07-31T04:43:10;98989.25;;;24.00;100.00
11343;BME280;5726;42.160;24.746;2023-07-31T04:45:35;98990.41;;;24.13;100.00
11343;BME280;5726;42.160;24.746;2023-07-31T04:48:01;98989.28;;;24.21;100.00
11343;BME280;5726;42.160;24.746;2023-07-31T04:50:26;98987.72;;;24.44;100.00
11343;BME280;5726;42.160;24.746;2023-07-31T04:52:52;98990.06;;;24.66;100.00
11343;BME280;5726;42.160;24.746;2023-07-31T04:55:17;98982.22;;;24.93;100.00
11343;BME280;5726;42.160;24.746;2023-07-31T04:57:43;98981.38;;;25.20;100.00
11343;BME280;5726;42.160;24.746;2023-07-31T05:00:08;98986.84;;;25.34;100.00
11343;BME280;5726;42.160;24.746;2023-07-31T05:02:34;98976.59;;;25.38;98.79
11343;BME280;5726;42.160;24.746;2023-07-31T05:04:59;98986.41;;;25.39;99.15
11343;BME280;5726;42.160;24.746;2023-07-31T05:07:25;98988.06;;;25.15;100.00
11343;BME280;5726;42.160;24.746;2023-07-31T05:09:50;98983.72;;;25.28;99.81
11343;BME280;5726;42.160;24.746;2023-07-31T05:12:15;98994.25;;;25.40;99.22
11343;BME280;5726;42.160;24.746;2023-07-31T05:14:41;98988.38;;;25.42;98.15
11343;BME280;5726;42.160;24.746;2023-07-31T05:17:06;98989.22;;;25.25;99.13
11343;BME280;5726;42.160;24.746;2023-07-31T05:19:32;98987.66;;;25.17;98.47
11343;BME280;5726;42.160;24.746;2023-07-31T05:21:57;98985.34;;;24.98;100.00
11343;BME280;5726;42.160;24.746;2023-07-31T05:24:23;98991.63;;;25.02;100.00
11343;BME280;5726;42.160;24.746;2023-07-31T05:26:48;98988.03;;;25.26;98.40
11343;BME280;5726;42.160;24.746;2023-07-31T05:29:14;98986.72;;;25.54;94.61
11343;BME280;5726;42.160;24.746;2023-07-31T05:31:39;98993.81;;;25.48;95.28
11343;BME280;5726;42.160;24.746;2023-07-31T05:34:05;98989.06;;;25.56;93.76
11343;BME280;5726;42.160;24.746;2023-07-31T05:36:30;98994.59;;;25.52;93.39
11343;BME280;5726;42.160;24.746;2023-07-31T05:38:55;98994.63;;;25.49;91.11
11343;BME280;5726;42.160;24.746;2023-07-31T05:41:21;99000.13;;;25.42;90.75
11343;BME280;5726;42.160;24.746;2023-07-31T05:43:46;98998.94;;;25.47;90.43
11343;BME280;5726;42.160;24.746;2023-07-31T05:46:12;98989.88;;;25.53;91.06
11343;BME280;5726;42.160;24.746;2023-07-31T05:48:37;98996.97;;;25.50;90.77
11343;BME280;5726;42.160;24.746;2023-07-31T05:51:03;98998.56;;;25.38;92.07
11343;BME280;5726;42.160;24.746;2023-07-31T05:53:28;99001.75;;;25.26;92.66
11343;BME280;5726;42.160;24.746;2023-07-31T05:55:54;99004.00;;;25.51;91.40
11343;BME280;5726;42.160;24.746;2023-07-31T05:58:19;99001.63;;;25.67;90.99
11343;BME280;5726;42.160;24.746;2023-07-31T06:00:44;99007.72;;;25.99;89.23
11343;BME280;5726;42.160;24.746;2023-07-31T06:03:10;99012.97;;;26.41;88.84
11343;BME280;5726;42.160;24.746;2023-07-31T06:05:35;99015.59;;;27.01;83.35
11343;BME280;5726;42.160;24.746;2023-07-31T06:08:01;99004.53;;;27.45;80.71
11343;BME280;5726;42.160;24.746;2023-07-31T06:10:26;99009.28;;;27.74;78.48
11343;BME280;5726;42.160;24.746;2023-07-31T06:12:52;99011.34;;;27.96;75.86
11343;BME280;5726;42.160;24.746;2023-07-31T06:15:18;99005.41;;;28.28;74.56
11343;BME280;5726;42.160;24.746;2023-07-31T06:17:44;99004.63;;;28.27;74.42
11343;BME280;5726;42.160;24.746;2023-07-31T06:20:10;99007.31;;;28.57;72.67
11343;BME280;5726;42.160;24.746;2023-07-31T06:22:36;98999.59;;;28.94;71.71
11343;BME280;5726;42.160;24.746;2023-07-31T06:25:01;99008.28;;;28.92;70.44
11343;BME280;5726;42.160;24.746;2023-07-31T06:27:26;99002.25;;;29.20;69.57
11343;BME280;5726;42.160;24.746;2023-07-31T06:29:52;99013.00;;;29.15;68.62
11343;BME280;5726;42.160;24.746;2023-07-31T06:32:17;99012.13;;;29.41;68.13
11343;BME280;5726;42.160;24.746;2023-07-31T06:34:43;99007.66;;;29.66;67.24
11343;BME280;5726;42.160;24.746;2023-07-31T06:37:09;99011.28;;;29.43;66.85
11343;BME280;5726;42.160;24.746;2023-07-31T06:39:34;99010.81;;;29.29;68.77
11343;BME280;5726;42.160;24.746;2023-07-31T06:41:59;99001.22;;;29.72;66.30
11343;BME280;5726;42.160;24.746;2023-07-31T06:44:25;99003.50;;;29.77;66.02
11343;BME280;5726;42.160;24.746;2023-07-31T06:46:51;99007.97;;;29.91;64.10
11343;BME280;5726;42.160;24.746;2023-07-31T06:49:16;99002.13;;;29.66;65.21
11343;BME280;5726;42.160;24.746;2023-07-31T06:51:41;98999.81;;;29.26;66.65
11343;BME280;5726;42.160;24.746;2023-07-31T06:54:08;99000.94;;;29.47;66.97
11343;BME280;5726;42.160;24.746;2023-07-31T06:56:33;99000.88;;;29.70;65.93
11343;BME280;5726;42.160;24.746;2023-07-31T06:58:59;99006.34;;;29.93;64.89
11343;BME280;5726;42.160;24.746;2023-07-31T07:01:24;99003.78;;;30.02;64.56
11343;BME280;5726;42.160;24.746;2023-07-31T07:03:50;99003.31;;;30.39;63.93
11343;BME280;5726;42.160;24.746;2023-07-31T07:06:18;99004.19;;;30.83;61.79
11343;BME280;5726;42.160;24.746;2023-07-31T07:08:44;99003.47;;;30.79;61.67
11343;BME280;5726;42.160;24.746;2023-07-31T07:11:09;99005.41;;;30.66;61.62
11343;BME280;5726;42.160;24.746;2023-07-31T07:13:35;99004.88;;;30.55;61.43
11343;BME280;5726;42.160;24.746;2023-07-31T07:16:00;99000.81;;;30.09;63.75
11343;BME280;5726;42.160;24.746;2023-07-31T07:18:25;99006.59;;;29.98;64.70
11343;BME280;5726;42.160;24.746;2023-07-31T07:20:52;99002.72;;;30.12;63.91
11343;BME280;5726;42.160;24.746;2023-07-31T07:23:18;99010.31;;;29.92;64.29
11343;BME280;5726;42.160;24.746;2023-07-31T07:25:45;99001.88;;;30.15;64.32
11343;BME280;5726;42.160;24.746;2023-07-31T07:28:11;99002.03;;;30.43;63.88
11343;BME280;5726;42.160;24.746;2023-07-31T07:30:36;99001.94;;;30.46;62.30
11343;BME280;5726;42.160;24.746;2023-07-31T07:33:02;99003.06;;;30.65;62.82
11343;BME280;5726;42.160;24.746;2023-07-31T07:35:27;99001.16;;;31.09;61.37
11343;BME280;5726;42.160;24.746;2023-07-31T07:37:53;99001.34;;;31.31;60.47
11343;BME280;5726;42.160;24.746;2023-07-31T07:40:19;99002.06;;;31.19;59.95
11343;BME280;5726;42.160;24.746;2023-07-31T07:42:45;98995.59;;;31.38;60.75
11343;BME280;5726;42.160;24.746;2023-07-31T07:45:10;98991.00;;;31.47;58.95
11343;BME280;5726;42.160;24.746;2023-07-31T07:47:36;99001.63;;;31.20;59.18
11343;BME280;5726;42.160;24.746;2023-07-31T07:50:01;99004.41;;;31.20;58.49
11343;BME280;5726;42.160;24.746;2023-07-31T07:52:26;99001.03;;;31.57;57.81
11343;BME280;5726;42.160;24.746;2023-07-31T07:54:52;98998.06;;;31.76;56.06
11343;BME280;5726;42.160;24.746;2023-07-31T07:57:18;98998.78;;;31.52;57.12
11343;BME280;5726;42.160;24.746;2023-07-31T07:59:43;98999.28;;;31.19;58.78
11343;BME280;5726;42.160;24.746;2023-07-31T08:02:09;99003.66;;;31.32;58.23
11343;BME280;5726;42.160;24.746;2023-07-31T08:04:34;99000.97;;;31.44;57.68
11343;BME280;5726;42.160;24.746;2023-07-31T08:06:59;98996.97;;;31.17;58.81
11343;BME280;5726;42.160;24.746;2023-07-31T08:09:25;98985.91;;;31.30;58.25
11343;BME280;5726;42.160;24.746;2023-07-31T08:11:50;98996.78;;;31.52;57.52
11343;BME280;5726;42.160;24.746;2023-07-31T08:14:16;98994.53;;;31.47;57.09
11343;BME280;5726;42.160;24.746;2023-07-31T08:16:41;98993.06;;;31.71;55.49
11343;BME280;5726;42.160;24.746;2023-07-31T08:19:07;98986.88;;;31.92;54.27
11343;BME280;5726;42.160;24.746;2023-07-31T08:21:32;98999.72;;;31.61;54.21
11343;BME280;5726;42.160;24.746;2023-07-31T08:23:57;98996.94;;;31.74;53.39
11343;BME280;5726;42.160;24.746;2023-07-31T08:26:23;98980.81;;;32.22;52.02
11343;BME280;5726;42.160;24.746;2023-07-31T08:29:07;98978.03;;;32.59;52.08
11343;BME280;5726;42.160;24.746;2023-07-31T08:31:32;98979.56;;;32.72;51.75
11343;BME280;5726;42.160;24.746;2023-07-31T08:33:58;98980.75;;;32.96;50.93
11343;BME280;5726;42.160;24.746;2023-07-31T08:36:23;98974.91;;;32.69;51.83
11343;BME280;5726;42.160;24.746;2023-07-31T08:38:48;98975.09;;;32.87;51.78
11343;BME280;5726;42.160;24.746;2023-07-31T08:41:15;98979.16;;;32.61;52.41
11343;BME280;5726;42.160;24.746;2023-07-31T08:43:44;98977.53;;;32.85;51.16
11343;BME280;5726;42.160;24.746;2023-07-31T08:46:10;98979.94;;;33.08;51.17
11343;BME280;5726;42.160;24.746;2023-07-31T08:48:37;98982.88;;;32.92;50.74
11343;BME280;5726;42.160;24.746;2023-07-31T08:51:04;98981.38;;;32.54;52.43
11343;BME280;5726;42.160;24.746;2023-07-31T08:53:30;98987.16;;;32.47;51.11
11343;BME280;5726;42.160;24.746;2023-07-31T08:55:56;98987.03;;;32.26;50.95
11343;BME280;5726;42.160;24.746;2023-07-31T08:58:23;98980.50;;;32.57;51.55
11343;BME280;5726;42.160;24.746;2023-07-31T09:00:50;98980.00;;;32.83;51.27
11343;BME280;5726;42.160;24.746;2023-07-31T09:03:17;98986.00;;;32.69;49.87
11343;BME280;5726;42.160;24.746;2023-07-31T09:05:45;98976.50;;;32.45;50.96
11343;BME280;5726;42.160;24.746;2023-07-31T09:08:13;98983.16;;;32.60;50.96
11343;BME280;5726;42.160;24.746;2023-07-31T09:10:42;98981.00;;;32.77;49.80
11343;BME280;5726;42.160;24.746;2023-07-31T09:13:09;98975.66;;;32.82;49.17
11343;BME280;5726;42.160;24.746;2023-07-31T09:15:36;98983.31;;;32.78;49.86
11343;BME280;5726;42.160;24.746;2023-07-31T09:18:03;98982.88;;;32.92;50.21
11343;BME280;5726;42.160;24.746;2023-07-31T09:20:30;98982.41;;;33.06;48.85
11343;BME280;5726;42.160;24.746;2023-07-31T09:22:57;98970.94;;;33.59;47.06
11343;BME280;5726;42.160;24.746;2023-07-31T09:25:29;98969.25;;;33.61;47.19
11343;BME280;5726;42.160;24.746;2023-07-31T09:28:02;98969.00;;;33.68;47.06
11343;BME280;5726;42.160;24.746;2023-07-31T09:30:27;98962.56;;;33.80;47.82
11343;BME280;5726;42.160;24.746;2023-07-31T09:33:06;98963.97;;;33.54;48.13
11343;BME280;5726;42.160;24.746;2023-07-31T09:35:34;98952.69;;;33.36;48.36
11343;BME280;5726;42.160;24.746;2023-07-31T09:38:03;98949.63;;;33.22;48.35
11343;BME280;5726;42.160;24.746;2023-07-31T09:40:36;98952.59;;;33.06;47.45
11343;BME280;5726;42.160;24.746;2023-07-31T09:43:04;98946.47;;;33.54;47.17
11343;BME280;5726;42.160;24.746;2023-07-31T09:45:33;98946.06;;;33.85;45.53
11343;BME280;5726;42.160;24.746;2023-07-31T09:47:59;98949.50;;;33.68;44.34
11343;BME280;5726;42.160;24.746;2023-07-31T09:50:25;98946.47;;;33.75;44.65
11343;BME280;5726;42.160;24.746;2023-07-31T09:52:51;98948.28;;;33.69;45.03
11343;BME280;5726;42.160;24.746;2023-07-31T09:55:17;98951.06;;;33.69;45.33
11343;BME280;5726;42.160;24.746;2023-07-31T09:57:46;98953.75;;;33.51;43.78
11343;BME280;5726;42.160;24.746;2023-07-31T10:00:13;98945.88;;;33.16;45.23
11343;BME280;5726;42.160;24.746;2023-07-31T10:02:39;98952.91;;;32.75;47.41
11343;BME280;5726;42.160;24.746;2023-07-31T10:05:06;98945.16;;;32.57;47.92
11343;BME280;5726;42.160;24.746;2023-07-31T10:07:39;98934.00;;;32.82;47.62
11343;BME280;5726;42.160;24.746;2023-07-31T10:10:07;98943.50;;;33.06;47.01
11343;BME280;5726;42.160;24.746;2023-07-31T10:12:33;98936.38;;;33.05;46.67
11343;BME280;5726;42.160;24.746;2023-07-31T10:15:00;98939.53;;;32.82;46.82
11343;BME280;5726;42.160;24.746;2023-07-31T10:17:26;98933.41;;;32.87;46.96
11343;BME280;5726;42.160;24.746;2023-07-31T10:19:52;98923.69;;;32.70;46.87
11343;BME280;5726;42.160;24.746;2023-07-31T10:22:19;98919.84;;;33.01;46.43
11343;BME280;5726;42.160;24.746;2023-07-31T10:24:46;98918.47;;;33.06;45.84
11343;BME280;5726;42.160;24.746;2023-07-31T10:27:12;98914.72;;;33.00;45.86
11343;BME280;5726;42.160;24.746;2023-07-31T10:29:43;98910.78;;;33.10;45.44
11343;BME280;5726;42.160;24.746;2023-07-31T10:32:09;98912.91;;;33.06;45.88
11343;BME280;5726;42.160;24.746;2023-07-31T10:34:39;98911.44;;;33.14;45.39
11343;BME280;5726;42.160;24.746;2023-07-31T10:40:04;98902.38;;;33.22;44.09
11343;BME280;5726;42.160;24.746;2023-07-31T10:42:47;98903.75;;;33.18;44.06
11343;BME280;5726;42.160;24.746;2023-07-31T10:45:13;98889.47;;;33.28;43.26
11343;BME280;5726;42.160;24.746;2023-07-31T10:47:46;98882.09;;;33.13;44.22
11343;BME280;5726;42.160;24.746;2023-07-31T10:50:12;98884.41;;;33.35;44.77
11343;BME280;5726;42.160;24.746;2023-07-31T10:52:38;98873.78;;;33.43;43.83
11343;BME280;5726;42.160;24.746;2023-07-31T10:57:52;98865.38;;;33.55;43.23
11343;BME280;5726;42.160;24.746;2023-07-31T11:05:53;98884.88;;;33.64;43.92
11343;BME280;5726;42.160;24.746;2023-07-31T11:08:24;98881.50;;;33.18;46.25
11343;BME280;5726;42.160;24.746;2023-07-31T11:11:14;98885.13;;;32.26;50.54
11343;BME280;5726;42.160;24.746;2023-07-31T11:13:42;98888.50;;;32.09;51.50
11343;BME280;5726;42.160;24.746;2023-07-31T11:16:08;98894.28;;;31.37;54.61
11343;BME280;5726;42.160;24.746;2023-07-31T11:18:34;98891.91;;;30.50;58.56
11343;BME280;5726;42.160;24.746;2023-07-31T11:21:00;98897.88;;;30.01;61.00
11343;BME280;5726;42.160;24.746;2023-07-31T11:23:25;98897.97;;;29.98;60.41
11343;BME280;5726;42.160;24.746;2023-07-31T11:25:51;98894.47;;;29.78;61.15
11343;BME280;5726;42.160;24.746;2023-07-31T11:28:17;98899.28;;;29.74;60.92
11343;BME280;5726;42.160;24.746;2023-07-31T11:30:44;98883.72;;;29.64;60.88
11343;BME280;5726;42.160;24.746;2023-07-31T11:33:12;98883.97;;;29.54;61.20
11343;BME280;5726;42.160;24.746;2023-07-31T11:35:48;98887.25;;;29.84;60.71
11343;BME280;5726;42.160;24.746;2023-07-31T11:38:28;98892.25;;;30.21;59.46
11343;BME280;5726;42.160;24.746;2023-07-31T11:40:56;98888.13;;;30.44;57.88
11343;BME280;5726;42.160;24.746;2023-07-31T11:43:22;98893.59;;;30.76;56.28
11343;BME280;5726;42.160;24.746;2023-07-31T11:45:49;98887.31;;;31.04;55.60
11343;BME280;5726;42.160;24.746;2023-07-31T11:48:28;98891.78;;;31.14;54.60
11343;BME280;5726;42.160;24.746;2023-07-31T11:50:57;98882.81;;;31.22;54.57
11343;BME280;5726;42.160;24.746;2023-07-31T11:53:36;98884.31;;;31.39;53.78
11343;BME280;5726;42.160;24.746;2023-07-31T11:56:04;98875.31;;;31.35;53.22
11343;BME280;5726;42.160;24.746;2023-07-31T11:58:31;98864.44;;;31.28;53.78
11343;BME280;5726;42.160;24.746;2023-07-31T12:00:58;98862.50;;;31.41;53.00
11343;BME280;5726;42.160;24.746;2023-07-31T12:03:24;98862.06;;;31.55;53.31
11343;BME280;5726;42.160;24.746;2023-07-31T12:05:50;98871.81;;;31.59;52.28
11343;BME280;5726;42.160;24.746;2023-07-31T12:08:15;98876.16;;;31.60;52.97
11343;BME280;5726;42.160;24.746;2023-07-31T12:10:41;98860.19;;;31.64;52.09
11343;BME280;5726;42.160;24.746;2023-07-31T12:13:11;98868.63;;;31.73;52.45
11343;BME280;5726;42.160;24.746;2023-07-31T12:15:41;98863.06;;;31.73;51.92
11343;BME280;5726;42.160;24.746;2023-07-31T12:20:34;98855.97;;;31.72;51.16
11343;BME280;5726;42.160;24.746;2023-07-31T12:22:59;98848.97;;;31.68;51.41
11343;BME280;5726;42.160;24.746;2023-07-31T12:25:30;98847.31;;;31.58;51.75
11343;BME280;5726;42.160;24.746;2023-07-31T12:27:56;98840.09;;;31.48;50.65
11343;BME280;5726;42.160;24.746;2023-07-31T12:30:34;98839.22;;;31.76;48.71
11343;BME280;5726;42.160;24.746;2023-07-31T12:33:33;98841.75;;;31.83;47.57
11343;BME280;5726;42.160;24.746;2023-07-31T12:36:01;98831.53;;;31.92;47.35
11343;BME280;5726;42.160;24.746;2023-07-31T12:38:26;98825.09;;;32.20;46.20
11343;BME280;5726;42.160;24.746;2023-07-31T12:40:52;98830.06;;;32.25;45.79
11343;BME280;5726;42.160;24.746;2023-07-31T12:43:17;98814.03;;;32.41;44.87
11343;BME280;5726;42.160;24.746;2023-07-31T12:45:43;98818.16;;;32.36;44.79
11343;BME280;5726;42.160;24.746;2023-07-31T12:48:08;98819.03;;;32.34;43.71
11343;BME280;5726;42.160;24.746;2023-07-31T12:50:33;98826.94;;;32.47;43.77
11343;BME280;5726;42.160;24.746;2023-07-31T12:53:02;98815.56;;;32.54;48.43
11343;BME280;5726;42.160;24.746;2023-07-31T12:55:29;98819.13;;;32.09;49.28
11343;BME280;5726;42.160;24.746;2023-07-31T12:57:55;98828.25;;;31.97;50.07
11343;BME280;5726;42.160;24.746;2023-07-31T13:00:21;98817.34;;;31.90;49.07
11343;BME280;5726;42.160;24.746;2023-07-31T13:02:47;98819.00;;;31.87;47.67
11343;BME280;5726;42.160;24.746;2023-07-31T13:05:13;98821.13;;;31.96;46.31
11343;BME280;5726;42.160;24.746;2023-07-31T13:07:39;98810.13;;;32.05;45.25
11343;BME280;5726;42.160;24.746;2023-07-31T13:10:06;98812.69;;;32.12;45.16
11343;BME280;5726;42.160;24.746;2023-07-31T13:12:31;98811.34;;;32.16;45.38
11343;BME280;5726;42.160;24.746;2023-07-31T13:14:57;98804.38;;;32.45;45.84